Terminal Aerodrome Forecast
Issued by NWS Jackson, KY

Home | Current Version | Previous Version | Text Only | Print | Product List | Glossary Off
Versions: 1 2 3 4 5 6 7 8 9 10 11 12 13 14

000
FTUS43 KJKL 030533
TAFLOZ
TAF
KLOZ 030533Z 0306/0406 00000KT P6SM FEW050
     FM030800 00000KT 4SM BR FEW250
     FM031300 VRB03KT P6SM FEW250
     FM031500 01005KT P6SM SCT050=

USA.gov is the U.S. government's official web portal to all federal, state and local government web resources and services.